sensor_id;sensor_type;location;lat;lon;timestamp;temperature;humidity
34985;DHT22;21190;58.750;17.004;2023-05-01T00:00:52;4.10;99.90
34985;DHT22;21190;58.750;17.004;2023-05-01T00:03:19;4.10;99.90
34985;DHT22;21190;58.750;17.004;2023-05-01T00:05:47;4.10;99.90
34985;DHT22;21190;58.750;17.004;2023-05-01T00:08:14;4.10;99.90
34985;DHT22;21190;58.750;17.004;2023-05-01T00:10:41;4.00;99.90
34985;DHT22;21190;58.750;17.004;2023-05-01T00:13:09;4.00;99.90
34985;DHT22;21190;58.750;17.004;2023-05-01T00:15:36;4.00;99.90
34985;DHT22;21190;58.750;17.004;2023-05-01T00:18:03;3.90;99.90
34985;DHT22;21190;58.750;17.004;2023-05-01T00:20:30;3.90;99.90
34985;DHT22;21190;58.750;17.004;2023-05-01T00:22:57;3.90;99.90
34985;DHT22;21190;58.750;17.004;2023-05-01T00:25:24;3.90;99.90
34985;DHT22;21190;58.750;17.004;2023-05-01T00:27:51;3.90;99.90
34985;DHT22;21190;58.750;17.004;2023-05-01T00:30:18;3.80;99.90
34985;DHT22;21190;58.750;17.004;2023-05-01T00:32:44;3.80;99.90
34985;DHT22;21190;58.750;17.004;2023-05-01T00:35:11;3.80;99.90
34985;DHT22;21190;58.750;17.004;2023-05-01T00:37:39;3.70;99.90
34985;DHT22;21190;58.750;17.004;2023-05-01T00:40:06;3.70;99.90
34985;DHT22;21190;58.750;17.004;2023-05-01T00:42:35;3.70;99.90
34985;DHT22;21190;58.750;17.004;2023-05-01T00:45:02;3.60;99.90
34985;DHT22;21190;58.750;17.004;2023-05-01T00:47:29;3.60;99.90
34985;DHT22;21190;58.750;17.004;2023-05-01T00:49:56;3.60;99.90
34985;DHT22;21190;58.750;17.004;2023-05-01T00:52:25;3.70;99.90
34985;DHT22;21190;58.750;17.004;2023-05-01T00:54:52;3.70;99.90
34985;DHT22;21190;58.750;17.004;2023-05-01T00:57:20;3.70;99.90
34985;DHT22;21190;58.750;17.004;2023-05-01T00:59:47;3.60;99.90
34985;DHT22;21190;58.750;17.004;2023-05-01T01:02:15;3.50;99.90
34985;DHT22;21190;58.750;17.004;2023-05-01T01:04:43;3.50;99.90
34985;DHT22;21190;58.750;17.004;2023-05-01T01:07:46;3.50;99.90
34985;DHT22;21190;58.750;17.004;2023-05-01T01:13:10;3.40;99.90
34985;DHT22;21190;58.750;17.004;2023-05-01T01:18:23;3.40;99.90
34985;DHT22;21190;58.750;17.004;2023-05-01T01:24:16;3.30;99.90
34985;DHT22;21190;58.750;17.004;2023-05-01T01:26:58;3.30;99.90
34985;DHT22;21190;58.750;17.004;2023-05-01T01:30:29;3.30;99.90
34985;DHT22;21190;58.750;17.004;2023-05-01T01:35:17;3.20;99.90
34985;DHT22;21190;58.750;17.004;2023-05-01T01:37:50;3.20;99.90
34985;DHT22;21190;58.750;17.004;2023-05-01T01:40:22;3.20;99.90
34985;DHT22;21190;58.750;17.004;2023-05-01T01:43:17;3.20;99.90
34985;DHT22;21190;58.750;17.004;2023-05-01T01:45:47;3.20;99.90
34985;DHT22;21190;58.750;17.004;2023-05-01T01:48:22;3.20;99.90
34985;DHT22;21190;58.750;17.004;2023-05-01T01:50:52;3.20;99.90
34985;DHT22;21190;58.750;17.004;2023-05-01T01:53:21;3.30;99.90
34985;DHT22;21190;58.750;17.004;2023-05-01T01:55:51;3.20;99.90
34985;DHT22;21190;58.750;17.004;2023-05-01T01:58:20;3.20;99.90
34985;DHT22;21190;58.750;17.004;2023-05-01T02:00:52;3.20;99.90
34985;DHT22;21190;58.750;17.004;2023-05-01T02:03:22;3.20;99.90
34985;DHT22;21190;58.750;17.004;2023-05-01T02:05:51;3.20;99.90
34985;DHT22;21190;58.750;17.004;2023-05-01T02:08:20;3.20;99.90
34985;DHT22;21190;58.750;17.004;2023-05-01T02:10:49;3.20;99.90
34985;DHT22;21190;58.750;17.004;2023-05-01T02:13:19;3.20;99.90
34985;DHT22;21190;58.750;17.004;2023-05-01T02:15:47;3.10;99.90
34985;DHT22;21190;58.750;17.004;2023-05-01T02:18:15;3.10;99.90
34985;DHT22;21190;58.750;17.004;2023-05-01T02:20:42;3.10;99.90
34985;DHT22;21190;58.750;17.004;2023-05-01T02:23:10;3.10;99.90
34985;DHT22;21190;58.750;17.004;2023-05-01T02:25:38;3.00;99.90
34985;DHT22;21190;58.750;17.004;2023-05-01T02:28:12;3.00;99.90
34985;DHT22;21190;58.750;17.004;2023-05-01T02:30:39;3.10;99.90
34985;DHT22;21190;58.750;17.004;2023-05-01T02:33:06;3.10;99.90
34985;DHT22;21190;58.750;17.004;2023-05-01T02:35:43;3.10;99.90
34985;DHT22;21190;58.750;17.004;2023-05-01T02:38:13;3.10;99.90
34985;DHT22;21190;58.750;17.004;2023-05-01T02:40:46;3.10;99.90
34985;DHT22;21190;58.750;17.004;2023-05-01T02:43:19;3.10;99.90
34985;DHT22;21190;58.750;17.004;2023-05-01T02:45:47;3.10;99.90
34985;DHT22;21190;58.750;17.004;2023-05-01T02:48:19;3.20;99.90
34985;DHT22;21190;58.750;17.004;2023-05-01T02:50:47;3.20;99.90
34985;DHT22;21190;58.750;17.004;2023-05-01T02:53:15;3.20;99.90
34985;DHT22;21190;58.750;17.004;2023-05-01T02:55:42;3.20;99.90
34985;DHT22;21190;58.750;17.004;2023-05-01T02:58:19;3.10;99.90
34985;DHT22;21190;58.750;17.004;2023-05-01T03:00:48;3.10;99.90
34985;DHT22;21190;58.750;17.004;2023-05-01T03:03:16;3.00;99.90
34985;DHT22;21190;58.750;17.004;2023-05-01T03:05:43;3.00;99.90
34985;DHT22;21190;58.750;17.004;2023-05-01T03:08:10;3.00;99.90
34985;DHT22;21190;58.750;17.004;2023-05-01T03:10:40;3.00;99.90
34985;DHT22;21190;58.750;17.004;2023-05-01T03:13:10;3.00;99.90
34985;DHT22;21190;58.750;17.004;2023-05-01T03:15:38;3.10;99.90
34985;DHT22;21190;58.750;17.004;2023-05-01T03:18:05;3.10;99.90
34985;DHT22;21190;58.750;17.004;2023-05-01T03:20:32;3.00;99.90
34985;DHT22;21190;58.750;17.004;2023-05-01T03:22:59;3.10;99.90
34985;DHT22;21190;58.750;17.004;2023-05-01T03:25:27;3.10;99.90
34985;DHT22;21190;58.750;17.004;2023-05-01T03:27:54;3.10;99.90
34985;DHT22;21190;58.750;17.004;2023-05-01T03:30:21;3.10;99.90
34985;DHT22;21190;58.750;17.004;2023-05-01T03:32:48;3.10;99.90
34985;DHT22;21190;58.750;17.004;2023-05-01T03:35:15;3.20;99.90
34985;DHT22;21190;58.750;17.004;2023-05-01T03:37:42;3.20;99.90
34985;DHT22;21190;58.750;17.004;2023-05-01T03:40:09;3.20;99.90
34985;DHT22;21190;58.750;17.004;2023-05-01T03:42:36;3.30;99.90
34985;DHT22;21190;58.750;17.004;2023-05-01T03:45:03;3.30;99.90
34985;DHT22;21190;58.750;17.004;2023-05-01T03:47:30;3.30;99.90
34985;DHT22;21190;58.750;17.004;2023-05-01T03:49:57;3.40;99.90
34985;DHT22;21190;58.750;17.004;2023-05-01T03:52:24;3.50;99.90
34985;DHT22;21190;58.750;17.004;2023-05-01T03:54:52;3.50;99.90
34985;DHT22;21190;58.750;17.004;2023-05-01T03:57:19;3.50;99.90
34985;DHT22;21190;58.750;17.004;2023-05-01T03:59:49;3.60;99.90
34985;DHT22;21190;58.750;17.004;2023-05-01T04:02:16;3.60;99.90
34985;DHT22;21190;58.750;17.004;2023-05-01T04:04:43;3.70;99.90
34985;DHT22;21190;58.750;17.004;2023-05-01T04:07:10;3.80;99.90
34985;DHT22;21190;58.750;17.004;2023-05-01T04:09:37;3.80;99.90
34985;DHT22;21190;58.750;17.004;2023-05-01T04:12:04;3.80;99.90
34985;DHT22;21190;58.750;17.004;2023-05-01T04:14:31;3.80;99.90
34985;DHT22;21190;58.750;17.004;2023-05-01T04:16:58;3.80;99.90
34985;DHT22;21190;58.750;17.004;2023-05-01T04:19:25;3.80;99.90
34985;DHT22;21190;58.750;17.004;2023-05-01T04:21:52;3.90;99.90
34985;DHT22;21190;58.750;17.004;2023-05-01T04:24:19;4.00;99.90
34985;DHT22;21190;58.750;17.004;2023-05-01T04:26:46;4.00;99.90
34985;DHT22;21190;58.750;17.004;2023-05-01T04:29:13;4.10;99.90
34985;DHT22;21190;58.750;17.004;2023-05-01T04:31:40;4.20;99.90
34985;DHT22;21190;58.750;17.004;2023-05-01T04:34:09;4.20;99.90
34985;DHT22;21190;58.750;17.004;2023-05-01T04:36:35;4.30;99.90
34985;DHT22;21190;58.750;17.004;2023-05-01T04:39:02;4.40;99.90
34985;DHT22;21190;58.750;17.004;2023-05-01T04:41:29;4.40;99.90
34985;DHT22;21190;58.750;17.004;2023-05-01T04:43:56;4.50;99.90
34985;DHT22;21190;58.750;17.004;2023-05-01T04:46:23;4.60;99.90
34985;DHT22;21190;58.750;17.004;2023-05-01T04:48:50;4.60;99.90
34985;DHT22;21190;58.750;17.004;2023-05-01T04:51:17;4.70;99.90
34985;DHT22;21190;58.750;17.004;2023-05-01T04:53:45;4.80;99.90
34985;DHT22;21190;58.750;17.004;2023-05-01T04:56:12;4.90;99.90
34985;DHT22;21190;58.750;17.004;2023-05-01T04:58:39;4.90;99.90
34985;DHT22;21190;58.750;17.004;2023-05-01T05:01:06;5.00;99.90
34985;DHT22;21190;58.750;17.004;2023-05-01T05:03:33;5.00;99.90
34985;DHT22;21190;58.750;17.004;2023-05-01T05:06:00;5.10;99.90
34985;DHT22;21190;58.750;17.004;2023-05-01T05:08:27;5.20;99.90
34985;DHT22;21190;58.750;17.004;2023-05-01T05:10:57;5.20;99.90
34985;DHT22;21190;58.750;17.004;2023-05-01T05:13:27;5.20;99.90
34985;DHT22;21190;58.750;17.004;2023-05-01T05:15:54;5.30;99.90
34985;DHT22;21190;58.750;17.004;2023-05-01T05:18:21;5.30;99.90
34985;DHT22;21190;58.750;17.004;2023-05-01T05:20:48;5.40;99.90
34985;DHT22;21190;58.750;17.004;2023-05-01T05:23:15;5.40;99.90
34985;DHT22;21190;58.750;17.004;2023-05-01T05:25:42;5.50;99.90
34985;DHT22;21190;58.750;17.004;2023-05-01T05:28:09;5.50;99.90
34985;DHT22;21190;58.750;17.004;2023-05-01T05:30:36;5.50;99.90
34985;DHT22;21190;58.750;17.004;2023-05-01T05:33:03;5.60;99.90
34985;DHT22;21190;58.750;17.004;2023-05-01T05:35:30;5.60;99.90
34985;DHT22;21190;58.750;17.004;2023-05-01T05:37:57;5.70;99.90
34985;DHT22;21190;58.750;17.004;2023-05-01T05:40:24;5.80;99.90
34985;DHT22;21190;58.750;17.004;2023-05-01T05:42:51;5.90;99.90
34985;DHT22;21190;58.750;17.004;2023-05-01T05:45:19;6.00;99.90
34985;DHT22;21190;58.750;17.004;2023-05-01T05:47:46;6.10;99.90
34985;DHT22;21190;58.750;17.004;2023-05-01T05:50:13;6.10;99.90
34985;DHT22;21190;58.750;17.004;2023-05-01T05:52:39;6.20;99.90
34985;DHT22;21190;58.750;17.004;2023-05-01T05:55:07;6.20;99.90
34985;DHT22;21190;58.750;17.004;2023-05-01T05:57:34;6.30;99.90
34985;DHT22;21190;58.750;17.004;2023-05-01T06:00:03;6.40;99.90
34985;DHT22;21190;58.750;17.004;2023-05-01T06:02:31;6.30;99.90
34985;DHT22;21190;58.750;17.004;2023-05-01T06:04:58;6.40;99.90
34985;DHT22;21190;58.750;17.004;2023-05-01T06:07:25;6.50;99.90
34985;DHT22;21190;58.750;17.004;2023-05-01T06:09:52;6.60;99.90
34985;DHT22;21190;58.750;17.004;2023-05-01T06:12:19;6.60;99.90
34985;DHT22;21190;58.750;17.004;2023-05-01T06:14:46;6.70;99.90
34985;DHT22;21190;58.750;17.004;2023-05-01T06:17:13;6.70;99.90
34985;DHT22;21190;58.750;17.004;2023-05-01T06:19:40;6.80;99.90
34985;DHT22;21190;58.750;17.004;2023-05-01T06:22:07;6.90;99.90
34985;DHT22;21190;58.750;17.004;2023-05-01T06:24:34;6.90;99.90
34985;DHT22;21190;58.750;17.004;2023-05-01T06:27:02;6.90;99.90
34985;DHT22;21190;58.750;17.004;2023-05-01T06:29:29;6.90;99.90
34985;DHT22;21190;58.750;17.004;2023-05-01T06:31:56;7.00;99.90
34985;DHT22;21190;58.750;17.004;2023-05-01T06:34:23;7.00;99.90
34985;DHT22;21190;58.750;17.004;2023-05-01T06:36:50;7.00;99.90
34985;DHT22;21190;58.750;17.004;2023-05-01T06:39:17;7.00;99.90
34985;DHT22;21190;58.750;17.004;2023-05-01T06:41:47;7.10;99.90
34985;DHT22;21190;58.750;17.004;2023-05-01T06:44:15;7.10;99.90
34985;DHT22;21190;58.750;17.004;2023-05-01T06:46:42;7.10;99.90
34985;DHT22;21190;58.750;17.004;2023-05-01T06:49:09;7.10;99.90
34985;DHT22;21190;58.750;17.004;2023-05-01T06:51:36;7.10;99.90
34985;DHT22;21190;58.750;17.004;2023-05-01T06:54:03;7.10;99.90
34985;DHT22;21190;58.750;17.004;2023-05-01T06:56:30;7.20;99.90
34985;DHT22;21190;58.750;17.004;2023-05-01T06:58:58;7.20;99.90
34985;DHT22;21190;58.750;17.004;2023-05-01T07:01:24;7.30;99.90
34985;DHT22;21190;58.750;17.004;2023-05-01T07:03:52;7.30;99.90
34985;DHT22;21190;58.750;17.004;2023-05-01T07:06:19;7.30;99.90
34985;DHT22;21190;58.750;17.004;2023-05-01T07:08:46;7.30;99.90
34985;DHT22;21190;58.750;17.004;2023-05-01T07:11:13;7.40;99.90
34985;DHT22;21190;58.750;17.004;2023-05-01T07:13:40;7.50;99.90
34985;DHT22;21190;58.750;17.004;2023-05-01T07:16:07;7.60;99.90
34985;DHT22;21190;58.750;17.004;2023-05-01T07:18:34;7.60;99.90
34985;DHT22;21190;58.750;17.004;2023-05-01T07:21:01;7.60;99.90
34985;DHT22;21190;58.750;17.004;2023-05-01T07:23:28;7.70;99.90
34985;DHT22;21190;58.750;17.004;2023-05-01T07:25:55;7.60;99.90
34985;DHT22;21190;58.750;17.004;2023-05-01T07:28:22;7.60;99.90
34985;DHT22;21190;58.750;17.004;2023-05-01T07:30:49;7.70;99.90
34985;DHT22;21190;58.750;17.004;2023-05-01T07:33:16;7.70;99.90
34985;DHT22;21190;58.750;17.004;2023-05-01T07:35:44;7.70;99.90
34985;DHT22;21190;58.750;17.004;2023-05-01T07:38:11;7.70;99.90
34985;DHT22;21190;58.750;17.004;2023-05-01T07:40:39;7.70;99.90
34985;DHT22;21190;58.750;17.004;2023-05-01T07:43:06;7.80;99.90
34985;DHT22;21190;58.750;17.004;2023-05-01T07:45:37;7.70;99.90
34985;DHT22;21190;58.750;17.004;2023-05-01T07:48:05;7.80;99.90
34985;DHT22;21190;58.750;17.004;2023-05-01T07:50:32;7.80;99.90
34985;DHT22;21190;58.750;17.004;2023-05-01T07:52:59;7.80;99.90
34985;DHT22;21190;58.750;17.004;2023-05-01T07:55:26;7.80;99.90
34985;DHT22;21190;58.750;17.004;2023-05-01T07:57:53;7.80;99.90
34985;DHT22;21190;58.750;17.004;2023-05-01T08:00:20;7.80;99.90
34985;DHT22;21190;58.750;17.004;2023-05-01T08:02:47;7.80;99.90
34985;DHT22;21190;58.750;17.004;2023-05-01T08:05:14;7.80;99.90
34985;DHT22;21190;58.750;17.004;2023-05-01T08:07:41;7.80;99.90
34985;DHT22;21190;58.750;17.004;2023-05-01T08:10:08;7.80;99.90
34985;DHT22;21190;58.750;17.004;2023-05-01T08:12:35;7.70;99.90
34985;DHT22;21190;58.750;17.004;2023-05-01T08:15:03;7.80;99.90
34985;DHT22;21190;58.750;17.004;2023-05-01T08:17:30;7.80;99.90
34985;DHT22;21190;58.750;17.004;2023-05-01T08:19:59;7.80;99.90
34985;DHT22;21190;58.750;17.004;2023-05-01T08:22:26;7.80;99.90
34985;DHT22;21190;58.750;17.004;2023-05-01T08:24:53;7.90;99.90
34985;DHT22;21190;58.750;17.004;2023-05-01T08:27:20;7.80;99.90
34985;DHT22;21190;58.750;17.004;2023-05-01T08:29:47;7.60;99.90
34985;DHT22;21190;58.750;17.004;2023-05-01T08:32:15;7.50;99.90
34985;DHT22;21190;58.750;17.004;2023-05-01T08:34:42;7.50;99.90
34985;DHT22;21190;58.750;17.004;2023-05-01T08:37:09;7.70;99.90
34985;DHT22;21190;58.750;17.004;2023-05-01T08:39:36;7.60;99.90
34985;DHT22;21190;58.750;17.004;2023-05-01T08:42:03;7.70;99.90
34985;DHT22;21190;58.750;17.004;2023-05-01T08:44:31;7.70;99.90
34985;DHT22;21190;58.750;17.004;2023-05-01T08:47:10;7.70;99.90
34985;DHT22;21190;58.750;17.004;2023-05-01T08:49:41;7.70;99.90
34985;DHT22;21190;58.750;17.004;2023-05-01T08:52:10;7.80;99.90
34985;DHT22;21190;58.750;17.004;2023-05-01T08:54:41;7.70;99.90
34985;DHT22;21190;58.750;17.004;2023-05-01T08:57:09;7.60;99.90
34985;DHT22;21190;58.750;17.004;2023-05-01T08:59:38;7.60;99.90
34985;DHT22;21190;58.750;17.004;2023-05-01T09:02:07;7.70;99.90
34985;DHT22;21190;58.750;17.004;2023-05-01T09:04:37;7.70;99.90
34985;DHT22;21190;58.750;17.004;2023-05-01T09:07:04;7.70;99.90
34985;DHT22;21190;58.750;17.004;2023-05-01T09:09:32;7.80;99.90
34985;DHT22;21190;58.750;17.004;2023-05-01T09:14:35;7.80;99.90
34985;DHT22;21190;58.750;17.004;2023-05-01T09:17:02;8.00;99.90
34985;DHT22;21190;58.750;17.004;2023-05-01T09:19:29;8.10;99.90
34985;DHT22;21190;58.750;17.004;2023-05-01T09:21:56;8.10;99.90
34985;DHT22;21190;58.750;17.004;2023-05-01T09:24:23;8.20;99.90
34985;DHT22;21190;58.750;17.004;2023-05-01T09:26:53;8.20;99.90
34985;DHT22;21190;58.750;17.004;2023-05-01T09:29:43;8.10;99.90
34985;DHT22;21190;58.750;17.004;2023-05-01T09:32:19;8.00;99.90
34985;DHT22;21190;58.750;17.004;2023-05-01T09:34:48;8.00;99.90
34985;DHT22;21190;58.750;17.004;2023-05-01T09:37:30;8.10;99.90
34985;DHT22;21190;58.750;17.004;2023-05-01T09:40:11;8.10;99.90
34985;DHT22;21190;58.750;17.004;2023-05-01T09:42:49;8.20;99.90
34985;DHT22;21190;58.750;17.004;2023-05-01T09:45:21;8.30;99.90
34985;DHT22;21190;58.750;17.004;2023-05-01T09:47:49;8.40;99.90
34985;DHT22;21190;58.750;17.004;2023-05-01T09:50:33;8.30;99.90
34985;DHT22;21190;58.750;17.004;2023-05-01T09:53:01;8.30;99.90
34985;DHT22;21190;58.750;17.004;2023-05-01T09:55:30;8.20;99.90
34985;DHT22;21190;58.750;17.004;2023-05-01T09:57:57;8.20;99.90
34985;DHT22;21190;58.750;17.004;2023-05-01T10:00:24;8.10;99.90
34985;DHT22;21190;58.750;17.004;2023-05-01T10:02:52;8.00;99.90
34985;DHT22;21190;58.750;17.004;2023-05-01T10:05:19;7.90;99.90
34985;DHT22;21190;58.750;17.004;2023-05-01T10:07:57;7.90;99.90
34985;DHT22;21190;58.750;17.004;2023-05-01T10:10:25;7.90;99.90
34985;DHT22;21190;58.750;17.004;2023-05-01T10:12:52;7.70;99.90
34985;DHT22;21190;58.750;17.004;2023-05-01T10:15:19;7.70;99.90
34985;DHT22;21190;58.750;17.004;2023-05-01T10:17:52;7.80;99.90
34985;DHT22;21190;58.750;17.004;2023-05-01T10:20:20;7.80;99.90
34985;DHT22;21190;58.750;17.004;2023-05-01T10:22:47;7.80;99.90
34985;DHT22;21190;58.750;17.004;2023-05-01T10:25:16;7.90;99.90
34985;DHT22;21190;58.750;17.004;2023-05-01T10:27:44;8.00;99.90
34985;DHT22;21190;58.750;17.004;2023-05-01T10:30:11;8.20;99.90
34985;DHT22;21190;58.750;17.004;2023-05-01T10:32:40;8.40;99.90
34985;DHT22;21190;58.750;17.004;2023-05-01T10:35:11;8.50;99.90
34985;DHT22;21190;58.750;17.004;2023-05-01T10:38:03;8.50;99.90
34985;DHT22;21190;58.750;17.004;2023-05-01T10:40:42;8.50;99.90
34985;DHT22;21190;58.750;17.004;2023-05-01T10:43:13;8.40;99.90
34985;DHT22;21190;58.750;17.004;2023-05-01T10:45:45;8.30;99.90
34985;DHT22;21190;58.750;17.004;2023-05-01T10:51:15;8.30;99.90
34985;DHT22;21190;58.750;17.004;2023-05-01T10:53:44;8.30;99.90
34985;DHT22;21190;58.750;17.004;2023-05-01T10:58:58;8.30;99.90
34985;DHT22;21190;58.750;17.004;2023-05-01T11:01:35;8.30;99.90
34985;DHT22;21190;58.750;17.004;2023-05-01T11:09:53;8.30;99.90
34985;DHT22;21190;58.750;17.004;2023-05-01T11:15:07;7.90;99.90
34985;DHT22;21190;58.750;17.004;2023-05-01T11:17:44;7.70;99.90
34985;DHT22;21190;58.750;17.004;2023-05-01T11:22:53;7.70;99.90
34985;DHT22;21190;58.750;17.004;2023-05-01T11:25:22;7.80;99.90
34985;DHT22;21190;58.750;17.004;2023-05-01T11:27:57;7.80;99.90
34985;DHT22;21190;58.750;17.004;2023-05-01T11:30:24;7.80;99.90
34985;DHT22;21190;58.750;17.004;2023-05-01T11:32:51;7.70;99.90
34985;DHT22;21190;58.750;17.004;2023-05-01T11:35:24;7.70;99.90
34985;DHT22;21190;58.750;17.004;2023-05-01T11:37:55;7.80;99.90
34985;DHT22;21190;58.750;17.004;2023-05-01T11:40:26;7.70;99.90
34985;DHT22;21190;58.750;17.004;2023-05-01T11:43:03;7.80;99.90
34985;DHT22;21190;58.750;17.004;2023-05-01T11:45:31;7.70;99.90
34985;DHT22;21190;58.750;17.004;2023-05-01T11:47:58;7.70;99.90
34985;DHT22;21190;58.750;17.004;2023-05-01T11:50:34;7.70;99.90
34985;DHT22;21190;58.750;17.004;2023-05-01T11:53:02;7.70;99.90
34985;DHT22;21190;58.750;17.004;2023-05-01T11:55:31;7.70;99.90
34985;DHT22;21190;58.750;17.004;2023-05-01T11:57:58;7.70;99.90
34985;DHT22;21190;58.750;17.004;2023-05-01T12:00:36;7.60;99.90
34985;DHT22;21190;58.750;17.004;2023-05-01T12:03:12;7.70;99.90
34985;DHT22;21190;58.750;17.004;2023-05-01T12:05:44;7.60;99.90
34985;DHT22;21190;58.750;17.004;2023-05-01T12:08:14;7.60;99.90
34985;DHT22;21190;58.750;17.004;2023-05-01T12:10:42;7.70;99.90
34985;DHT22;21190;58.750;17.004;2023-05-01T12:13:11;7.80;99.90
34985;DHT22;21190;58.750;17.004;2023-05-01T12:15:45;7.90;99.90
34985;DHT22;21190;58.750;17.004;2023-05-01T12:18:13;7.90;99.90
34985;DHT22;21190;58.750;17.004;2023-05-01T12:20:45;7.90;99.90
34985;DHT22;21190;58.750;17.004;2023-05-01T12:23:14;8.00;99.90
34985;DHT22;21190;58.750;17.004;2023-05-01T12:25:45;8.10;99.90
34985;DHT22;21190;58.750;17.004;2023-05-01T12:28:13;8.20;99.90
34985;DHT22;21190;58.750;17.004;2023-05-01T12:30:41;8.30;99.90
34985;DHT22;21190;58.750;17.004;2023-05-01T12:33:10;8.30;99.90
34985;DHT22;21190;58.750;17.004;2023-05-01T12:35:39;8.30;99.90
34985;DHT22;21190;58.750;17.004;2023-05-01T12:40:51;8.40;99.90
34985;DHT22;21190;58.750;17.004;2023-05-01T12:43:31;8.50;99.90
34985;DHT22;21190;58.750;17.004;2023-05-01T12:45:59;8.50;99.90
34985;DHT22;21190;58.750;17.004;2023-05-01T12:48:26;8.50;99.90
34985;DHT22;21190;58.750;17.004;2023-05-01T12:50:53;8.50;99.90
34985;DHT22;21190;58.750;17.004;2023-05-01T12:53:25;8.50;99.90
34985;DHT22;21190;58.750;17.004;2023-05-01T12:55:55;8.40;99.90
34985;DHT22;21190;58.750;17.004;2023-05-01T12:58:22;8.50;99.90
34985;DHT22;21190;58.750;17.004;2023-05-01T13:00:54;8.40;99.90
34985;DHT22;21190;58.750;17.004;2023-05-01T13:03:24;8.30;99.90
34985;DHT22;21190;58.750;17.004;2023-05-01T13:05:55;8.10;99.90
34985;DHT22;21190;58.750;17.004;2023-05-01T13:08:35;8.20;99.90
34985;DHT22;21190;58.750;17.004;2023-05-01T13:11:13;8.10;99.90
34985;DHT22;21190;58.750;17.004;2023-05-01T13:13:40;8.20;99.90
34985;DHT22;21190;58.750;17.004;2023-05-01T13:16:15;8.20;99.90
34985;DHT22;21190;58.750;17.004;2023-05-01T13:18:47;8.30;99.90
34985;DHT22;21190;58.750;17.004;2023-05-01T13:21:21;8.30;99.90
34985;DHT22;21190;58.750;17.004;2023-05-01T13:23:56;8.30;99.90
34985;DHT22;21190;58.750;17.004;2023-05-01T13:26:32;8.30;99.90
34985;DHT22;21190;58.750;17.004;2023-05-01T13:29:02;8.40;99.90
34985;DHT22;21190;58.750;17.004;2023-05-01T13:31:29;8.40;99.90
34985;DHT22;21190;58.750;17.004;2023-05-01T13:33:58;8.40;99.90
34985;DHT22;21190;58.750;17.004;2023-05-01T13:36:30;8.50;99.90
34985;DHT22;21190;58.750;17.004;2023-05-01T13:39:00;8.60;99.90
34985;DHT22;21190;58.750;17.004;2023-05-01T13:41:27;8.60;99.90
34985;DHT22;21190;58.750;17.004;2023-05-01T13:43:56;8.70;99.90
34985;DHT22;21190;58.750;17.004;2023-05-01T13:46:24;8.80;99.90
34985;DHT22;21190;58.750;17.004;2023-05-01T13:48:52;8.80;99.90
34985;DHT22;21190;58.750;17.004;2023-05-01T13:51:21;8.80;99.90
34985;DHT22;21190;58.750;17.004;2023-05-01T13:53:49;8.80;99.90
34985;DHT22;21190;58.750;17.004;2023-05-01T13:56:16;8.90;99.90
34985;DHT22;21190;58.750;17.004;2023-05-01T13:58:43;8.90;99.90
34985;DHT22;21190;58.750;17.004;2023-05-01T14:01:18;8.90;99.90
34985;DHT22;21190;58.750;17.004;2023-05-01T14:03:47;9.00;99.90
34985;DHT22;21190;58.750;17.004;2023-05-01T14:06:19;9.10;99.90
34985;DHT22;21190;58.750;17.004;2023-05-01T14:08:47;9.20;99.90
34985;DHT22;21190;58.750;17.004;2023-05-01T14:11:14;9.20;99.90
34985;DHT22;21190;58.750;17.004;2023-05-01T14:13:44;9.30;99.90
34985;DHT22;21190;58.750;17.004;2023-05-01T14:16:25;9.40;99.90
34985;DHT22;21190;58.750;17.004;2023-05-01T14:18:54;9.50;99.90
34985;DHT22;21190;58.750;17.004;2023-05-01T14:21:24;9.50;99.90
34985;DHT22;21190;58.750;17.004;2023-05-01T14:23:53;9.50;99.90
34985;DHT22;21190;58.750;17.004;2023-05-01T14:26:21;9.60;99.90
34985;DHT22;21190;58.750;17.004;2023-05-01T14:28:49;9.60;99.90
34985;DHT22;21190;58.750;17.004;2023-05-01T14:33:56;9.60;99.90
34985;DHT22;21190;58.750;17.004;2023-05-01T14:36:24;9.60;99.90
34985;DHT22;21190;58.750;17.004;2023-05-01T14:38:55;9.50;99.90
34985;DHT22;21190;58.750;17.004;2023-05-01T14:41:22;9.50;99.90
34985;DHT22;21190;58.750;17.004;2023-05-01T14:43:52;9.60;99.90
34985;DHT22;21190;58.750;17.004;2023-05-01T14:46:30;9.70;99.90
34985;DHT22;21190;58.750;17.004;2023-05-01T14:48:58;9.70;99.90
34985;DHT22;21190;58.750;17.004;2023-05-01T14:51:27;9.80;99.90
34985;DHT22;21190;58.750;17.004;2023-05-01T14:53:54;9.90;99.90
34985;DHT22;21190;58.750;17.004;2023-05-01T14:56:21;9.90;99.90
34985;DHT22;21190;58.750;17.004;2023-05-01T14:58:49;9.90;99.90
34985;DHT22;21190;58.750;17.004;2023-05-01T15:01:16;9.90;99.90
34985;DHT22;21190;58.750;17.004;2023-05-01T15:03:44;9.80;99.90
34985;DHT22;21190;58.750;17.004;2023-05-01T15:06:11;9.70;99.90
34985;DHT22;21190;58.750;17.004;2023-05-01T15:08:38;9.60;99.90
34985;DHT22;21190;58.750;17.004;2023-05-01T15:11:05;9.70;99.90
34985;DHT22;21190;58.750;17.004;2023-05-01T15:13:33;9.80;99.90
34985;DHT22;21190;58.750;17.004;2023-05-01T15:16:00;9.90;99.90
34985;DHT22;21190;58.750;17.004;2023-05-01T15:18:27;9.90;99.90
34985;DHT22;21190;58.750;17.004;2023-05-01T15:20:54;10.00;99.90
34985;DHT22;21190;58.750;17.004;2023-05-01T15:23:21;10.10;99.90
34985;DHT22;21190;58.750;17.004;2023-05-01T15:25:49;10.10;99.90
34985;DHT22;21190;58.750;17.004;2023-05-01T15:28:16;10.20;99.90
34985;DHT22;21190;58.750;17.004;2023-05-01T15:30:44;10.20;99.90
34985;DHT22;21190;58.750;17.004;2023-05-01T15:33:13;10.10;99.90
34985;DHT22;21190;58.750;17.004;2023-05-01T15:35:44;10.10;99.90
34985;DHT22;21190;58.750;17.004;2023-05-01T15:38:12;10.00;99.90
34985;DHT22;21190;58.750;17.004;2023-05-01T15:40:41;10.10;99.90
34985;DHT22;21190;58.750;17.004;2023-05-01T15:43:08;10.10;99.90
34985;DHT22;21190;58.750;17.004;2023-05-01T15:45:35;10.10;99.90
34985;DHT22;21190;58.750;17.004;2023-05-01T15:48:08;10.10;99.90
34985;DHT22;21190;58.750;17.004;2023-05-01T15:50:35;10.10;99.90
34985;DHT22;21190;58.750;17.004;2023-05-01T15:53:02;10.10;99.90
34985;DHT22;21190;58.750;17.004;2023-05-01T15:55:29;10.10;99.90
34985;DHT22;21190;58.750;17.004;2023-05-01T15:57:56;10.00;99.90
34985;DHT22;21190;58.750;17.004;2023-05-01T16:00:23;10.10;99.90
34985;DHT22;21190;58.750;17.004;2023-05-01T16:02:51;10.20;99.90
34985;DHT22;21190;58.750;17.004;2023-05-01T16:05:19;10.20;99.90
34985;DHT22;21190;58.750;17.004;2023-05-01T16:07:53;10.20;99.90
34985;DHT22;21190;58.750;17.004;2023-05-01T16:10:21;10.10;99.90
34985;DHT22;21190;58.750;17.004;2023-05-01T16:12:48;10.10;99.90
34985;DHT22;21190;58.750;17.004;2023-05-01T16:15:17;10.00;99.90
34985;DHT22;21190;58.750;17.004;2023-05-01T16:17:44;10.10;99.90